createdAt,value
2019-02-19T00:02:26.975Z,467.27
2019-02-19T00:04:54.368Z,456.17
2019-02-19T00:07:22.047Z,489.47
2019-02-19T00:09:49.769Z,453.70
2019-02-19T00:12:17.408Z,489.87
2019-02-19T00:14:45.246Z,454.40
2019-02-19T00:17:12.847Z,477.57
2019-02-19T00:19:40.786Z,457.17
2019-02-19T00:22:08.568Z,449.47
2019-02-19T00:24:36.124Z,439.10
2019-02-19T00:27:03.870Z,467.83
2019-02-19T00:29:31.522Z,440.80
2019-02-19T00:31:59.053Z,477.00
2019-02-19T00:34:27.176Z,436.13
2019-02-19T00:36:54.791Z,461.90
2019-02-19T00:39:23.693Z,466.37
2019-02-19T00:41:51.264Z,470.33
2019-02-19T00:44:18.893Z,450.90
2019-02-19T00:46:46.412Z,472.97
2019-02-19T00:49:14.152Z,459.23
2019-02-19T00:51:41.799Z,483.60
2019-02-19T00:54:09.403Z,473.03
2019-02-19T00:56:37.133Z,459.90
2019-02-19T00:59:04.647Z,439.13
2019-02-19T01:01:36.385Z,466.70
2019-02-19T01:04:05.164Z,464.03
2019-02-19T01:06:32.613Z,476.50
2019-02-19T01:09:00.137Z,468.60
2019-02-19T01:11:27.673Z,470.17
2019-02-19T01:13:56.013Z,466.30
2019-02-19T01:16:23.573Z,469.03
2019-02-19T01:18:51.088Z,452.60
2019-02-19T01:24:34.135Z,453.13
2019-02-19T01:27:01.737Z,459.60
2019-02-19T01:29:29.319Z,457.90
2019-02-19T01:31:56.849Z,463.00
2019-02-19T01:34:24.340Z,446.97
2019-02-19T01:36:51.731Z,479.17
2019-02-19T01:39:19.348Z,452.43
2019-02-19T01:41:46.976Z,471.47
2019-02-19T01:44:14.409Z,439.80
2019-02-19T01:46:41.909Z,469.13
2019-02-19T01:49:09.524Z,468.30
2019-02-19T01:51:37.105Z,456.30
2019-02-19T01:54:04.603Z,421.30
2019-02-19T01:56:32.412Z,461.33
2019-02-19T01:58:59.992Z,443.57
2019-02-19T02:01:27.742Z,448.27
2019-02-19T02:03:55.420Z,426.67
2019-02-19T02:06:22.978Z,457.77
2019-02-19T02:08:50.552Z,422.03
2019-02-19T02:11:18.097Z,436.73
2019-02-19T02:13:45.484Z,468.37
2019-02-19T02:16:13.293Z,439.13
2019-02-19T02:18:40.849Z,467.47
2019-02-19T02:21:08.513Z,435.37
2019-02-19T02:23:36.192Z,434.13
2019-02-19T02:26:03.790Z,432.40
2019-02-19T02:28:31.365Z,439.17
2019-02-19T02:30:58.871Z,447.10
2019-02-19T02:33:26.279Z,420.70
2019-02-19T02:35:53.684Z,418.90
2019-02-19T02:38:21.125Z,433.93
2019-02-19T02:40:48.672Z,447.07
2019-02-19T02:43:16.306Z,404.30
2019-02-19T02:45:52.728Z,423.37
2019-02-19T02:48:13.365Z,419.27
2019-02-19T02:50:41.001Z,444.47
2019-02-19T02:53:08.688Z,419.73
2019-02-19T02:55:36.522Z,417.97
2019-02-19T02:58:06.235Z,433.53
2019-02-19T03:00:33.996Z,462.87
2019-02-19T03:03:01.473Z,424.37
2019-02-19T03:05:29.083Z,455.10
2019-02-19T03:07:59.951Z,440.50
2019-02-19T03:10:27.549Z,419.67
2019-02-19T03:12:55.543Z,440.40
2019-02-19T03:15:23.354Z,434.23
2019-02-19T03:17:50.828Z,430.13
2019-02-19T03:20:18.276Z,422.13
2019-02-19T03:22:46.995Z,432.47
2019-02-19T03:25:14.528Z,418.87
2019-02-19T03:27:41.954Z,456.67
2019-02-19T03:30:10.526Z,418.57
2019-02-19T03:32:38.013Z,426.37
2019-02-19T03:35:05.659Z,405.90
2019-02-19T03:37:33.236Z,409.33
2019-02-19T03:40:00.732Z,418.33
2019-02-19T03:42:28.347Z,428.77
2019-02-19T03:44:55.757Z,404.97
2019-02-19T03:47:24.007Z,421.33
2019-02-19T03:49:51.385Z,421.67
2019-02-19T03:52:18.991Z,426.23
2019-02-19T03:54:46.720Z,429.60
2019-02-19T03:57:14.327Z,435.37
2019-02-19T03:59:42.059Z,436.17
2019-02-19T04:02:09.520Z,451.33
2019-02-19T04:04:37.158Z,426.80
2019-02-19T04:07:04.738Z,427.73
2019-02-19T04:09:32.314Z,399.97
2019-02-19T04:11:59.826Z,440.37
2019-02-19T04:14:27.360Z,414.87
2019-02-19T04:16:54.900Z,442.33
2019-02-19T04:19:22.279Z,379.97
2019-02-19T04:21:49.682Z,437.97
2019-02-19T04:24:17.179Z,400.23
2019-02-19T04:26:44.872Z,427.60
2019-02-19T04:29:12.561Z,393.23
2019-02-19T04:31:40.137Z,415.40
2019-02-19T04:34:07.680Z,380.60
2019-02-19T04:36:35.168Z,455.50
2019-02-19T04:39:04.392Z,397.73
2019-02-19T04:41:32.997Z,433.00
2019-02-19T04:44:00.362Z,371.87
2019-02-19T04:46:31.466Z,413.10
2019-02-19T04:48:57.392Z,398.67
2019-02-19T04:51:24.955Z,397.33
2019-02-19T04:53:52.455Z,386.47
2019-02-19T04:56:20.095Z,383.30
2019-02-19T04:58:47.734Z,405.10
2019-02-19T05:01:15.273Z,405.43
2019-02-19T05:03:43.989Z,404.27
2019-02-19T05:06:12.750Z,393.87
2019-02-19T05:08:40.295Z,400.80
2019-02-19T05:11:08.353Z,410.33
2019-02-19T05:13:36.509Z,423.07
2019-02-19T05:16:04.814Z,390.17
2019-02-19T05:18:32.589Z,391.63
2019-02-19T05:21:00.206Z,393.03
2019-02-19T05:23:27.916Z,394.37
2019-02-19T05:25:55.872Z,386.37
2019-02-19T05:28:23.272Z,396.83
2019-02-19T05:30:50.822Z,400.83
2019-02-19T05:33:18.446Z,421.47
2019-02-19T05:35:46.098Z,402.63
2019-02-19T05:38:13.552Z,404.80
2019-02-19T05:40:41.192Z,404.43
2019-02-19T05:43:08.602Z,401.67
2019-02-19T05:45:36.086Z,415.80
2019-02-19T05:48:05.276Z,417.57
2019-02-19T05:50:32.866Z,459.67
2019-02-19T05:53:00.329Z,418.53
2019-02-19T05:55:28.753Z,412.53
2019-02-19T05:57:56.242Z,422.80
2019-02-19T06:00:24.706Z,410.83
2019-02-19T06:02:52.128Z,396.13
2019-02-19T06:05:19.622Z,391.93
2019-02-19T06:07:47.050Z,401.70
2019-02-19T06:10:16.795Z,395.87
2019-02-19T06:12:44.950Z,384.97
2019-02-19T06:15:12.637Z,413.20
2019-02-19T06:17:40.153Z,384.67
2019-02-19T06:20:08.295Z,396.67
2019-02-19T06:22:38.106Z,406.67
2019-02-19T06:25:07.004Z,412.70
2019-02-19T06:27:34.425Z,406.33
2019-02-19T06:30:02.136Z,393.00
2019-02-19T06:32:29.778Z,380.80
2019-02-19T06:34:57.461Z,383.30
2019-02-19T06:37:51.031Z,403.40
2019-02-19T06:40:27.631Z,410.37
2019-02-19T06:42:55.194Z,408.27
2019-02-19T06:45:22.838Z,377.03
2019-02-19T06:47:50.360Z,397.03
2019-02-19T06:50:17.929Z,404.60
2019-02-19T06:52:45.728Z,406.73
2019-02-19T06:55:13.255Z,408.03
2019-02-19T06:57:40.822Z,412.47
2019-02-19T07:00:10.151Z,398.07
2019-02-19T07:02:46.853Z,405.07
2019-02-19T07:05:19.463Z,415.67
2019-02-19T07:07:47.933Z,432.40
2019-02-19T07:10:15.848Z,412.43
2019-02-19T07:12:44.441Z,420.57
2019-02-19T07:15:12.060Z,438.03
2019-02-19T07:17:39.504Z,407.63
2019-02-19T07:20:07.193Z,399.37
2019-02-19T07:22:35.497Z,398.27
2019-02-19T07:25:03.535Z,411.80
2019-02-19T07:27:32.246Z,398.90
2019-02-19T07:29:59.766Z,431.23
2019-02-19T07:32:27.903Z,433.63
2019-02-19T07:34:55.434Z,414.43
2019-02-19T07:37:22.937Z,428.87
2019-02-19T07:39:51.233Z,408.73
2019-02-19T07:42:20.214Z,444.93
2019-02-19T07:44:47.654Z,472.23
2019-02-19T07:47:15.005Z,457.53
2019-02-19T07:49:42.372Z,427.00
2019-02-19T07:52:09.778Z,464.63
2019-02-19T07:54:37.223Z,454.23
2019-02-19T07:57:04.708Z,456.70
2019-02-19T07:59:32.320Z,443.93
2019-02-19T08:01:59.821Z,453.73
2019-02-19T08:04:27.236Z,433.23
2019-02-19T08:06:54.679Z,438.83
2019-02-19T08:09:22.216Z,415.17
2019-02-19T08:11:49.922Z,446.47
2019-02-19T08:14:17.488Z,426.90
2019-02-19T08:16:45.715Z,445.73
2019-02-19T08:19:13.179Z,419.20
2019-02-19T08:21:40.592Z,436.30
2019-02-19T08:24:08.081Z,446.20
2019-02-19T08:26:35.539Z,428.57
2019-02-19T08:29:13.251Z,403.13
2019-02-19T08:31:32.969Z,423.47
2019-02-19T08:34:00.463Z,394.77
2019-02-19T08:36:29.658Z,422.07
2019-02-19T08:38:57.274Z,385.23
2019-02-19T08:41:24.814Z,413.57
2019-02-19T08:43:52.155Z,397.00
2019-02-19T08:46:19.494Z,402.40
2019-02-19T08:48:47.618Z,369.60
2019-02-19T08:51:15.112Z,370.03
2019-02-19T08:53:42.483Z,368.00
2019-02-19T08:56:10.041Z,365.43
2019-02-19T08:58:37.459Z,349.80
2019-02-19T09:01:05.069Z,362.70
2019-02-19T09:03:32.495Z,341.30
2019-02-19T09:06:00.611Z,378.07
2019-02-19T09:08:28.698Z,321.90
2019-02-19T09:10:56.101Z,333.67
2019-02-19T09:13:23.652Z,367.47
2019-02-19T09:15:51.144Z,362.43
2019-02-19T09:18:18.507Z,343.97
2019-02-19T09:20:46.510Z,375.13
2019-02-19T09:23:15.031Z,390.03
2019-02-19T09:25:42.693Z,333.97
2019-02-19T09:28:10.607Z,312.73
2019-02-19T09:30:38.250Z,335.07
2019-02-19T09:33:06.337Z,338.43
2019-02-19T09:35:34.300Z,347.90
2019-02-19T09:38:01.756Z,318.03
2019-02-19T09:40:30.266Z,326.03
2019-02-19T09:42:57.734Z,325.07
2019-02-19T09:45:25.150Z,323.50
2019-02-19T09:48:01.051Z,333.47
2019-02-19T09:50:22.150Z,309.53
2019-02-19T09:52:59.802Z,342.37
2019-02-19T09:55:22.250Z,328.70
2019-02-19T09:57:49.858Z,333.17
2019-02-19T10:00:17.258Z,313.83
2019-02-19T10:02:44.588Z,341.87
2019-02-19T10:05:12.090Z,326.63
2019-02-19T10:07:39.675Z,326.20
2019-02-19T10:10:10.444Z,349.60
2019-02-19T10:12:37.809Z,314.20
2019-02-19T10:15:07.235Z,319.53
2019-02-19T10:17:34.570Z,311.03
2019-02-19T10:20:02.025Z,318.50
2019-02-19T10:22:30.541Z,317.37
2019-02-19T10:24:57.940Z,364.17
2019-02-19T10:27:26.802Z,323.70
2019-02-19T10:29:54.161Z,311.13
2019-02-19T10:32:21.677Z,307.97
2019-02-19T10:34:49.183Z,312.97
2019-02-19T10:37:16.552Z,335.50
2019-02-19T10:39:44.110Z,308.00
2019-02-19T10:42:11.555Z,329.57
2019-02-19T10:44:39.521Z,289.57
2019-02-19T10:47:07.028Z,343.43
2019-02-19T10:49:34.789Z,296.43
2019-02-19T10:52:02.241Z,317.37
2019-02-19T10:54:29.763Z,298.73
2019-02-19T10:56:57.261Z,313.60
2019-02-19T10:59:24.896Z,288.27
2019-02-19T11:01:52.272Z,321.47
2019-02-19T11:04:19.694Z,289.33
2019-02-19T11:06:47.081Z,327.63
2019-02-19T11:09:14.654Z,298.70
2019-02-19T11:11:42.029Z,332.50
2019-02-19T11:14:09.426Z,312.50
2019-02-19T11:16:37.221Z,353.60
2019-02-19T11:19:04.926Z,313.90
2019-02-19T11:21:32.386Z,342.00
2019-02-19T11:23:59.978Z,309.73
2019-02-19T11:26:27.967Z,331.70
2019-02-19T11:28:55.490Z,290.33
2019-02-19T11:31:23.494Z,315.07
2019-02-19T11:33:50.974Z,331.57
2019-02-19T11:36:18.742Z,309.40
2019-02-19T11:38:46.883Z,302.00
2019-02-19T11:41:14.842Z,319.27
2019-02-19T11:43:42.451Z,317.80
2019-02-19T11:46:12.540Z,268.73
2019-02-19T11:48:40.045Z,306.30
2019-02-19T11:51:07.512Z,299.00
2019-02-19T11:53:34.869Z,293.97
2019-02-19T11:56:02.234Z,356.23
2019-02-19T11:58:29.764Z,300.90
2019-02-19T12:00:57.273Z,290.20
2019-02-19T12:03:24.725Z,305.93
2019-02-19T12:05:52.333Z,288.87
2019-02-19T12:08:19.827Z,299.80
2019-02-19T12:10:47.246Z,310.60
2019-02-19T12:13:15.796Z,318.10
2019-02-19T12:15:45.264Z,304.70
2019-02-19T12:18:13.015Z,316.10
2019-02-19T12:20:40.612Z,299.37
2019-02-19T12:23:08.874Z,314.47
2019-02-19T12:25:36.346Z,373.07
2019-02-19T12:28:03.981Z,345.70
2019-02-19T12:30:31.669Z,341.97
2019-02-19T12:32:59.103Z,347.67
2019-02-19T12:35:26.614Z,306.67
2019-02-19T12:37:54.088Z,314.43
2019-02-19T12:40:21.599Z,297.13
2019-02-19T12:42:49.111Z,317.17
2019-02-19T12:45:16.771Z,345.00
2019-02-19T12:47:44.196Z,319.70
2019-02-19T12:50:12.243Z,327.30
2019-02-19T12:52:39.790Z,308.23
2019-02-19T12:55:08.893Z,279.27
2019-02-19T12:57:36.903Z,275.23
2019-02-19T13:00:06.536Z,318.40
2019-02-19T13:02:36.179Z,301.07
2019-02-19T13:05:05.089Z,300.00
2019-02-19T13:07:32.720Z,306.40
2019-02-19T13:10:00.401Z,383.37
2019-02-19T13:12:27.971Z,317.07
2019-02-19T13:14:55.437Z,325.27
2019-02-19T13:17:24.095Z,320.23
2019-02-19T13:19:51.652Z,312.27
2019-02-19T13:22:20.245Z,306.00
2019-02-19T13:24:47.783Z,315.87
2019-02-19T13:27:15.343Z,360.67
2019-02-19T13:29:42.957Z,301.33
2019-02-19T13:32:10.782Z,366.70
2019-02-19T13:34:38.214Z,311.50
2019-02-19T13:37:05.590Z,350.73
2019-02-19T13:39:33.264Z,313.33
2019-02-19T13:42:02.089Z,320.47
2019-02-19T13:44:30.179Z,317.00
2019-02-19T13:46:57.705Z,373.80
2019-02-19T13:49:25.316Z,300.83
2019-02-19T13:51:54.708Z,332.03
2019-02-19T13:54:26.993Z,308.73
2019-02-19T13:56:54.557Z,352.63
2019-02-19T13:59:22.114Z,318.67
2019-02-19T14:01:49.531Z,332.73
2019-02-19T14:04:17.196Z,322.23
2019-02-19T14:06:44.770Z,353.50
2019-02-19T14:09:12.377Z,326.33
2019-02-19T14:11:39.730Z,346.80
2019-02-19T14:14:14.566Z,321.47
2019-02-19T14:20:00.392Z,333.30
2019-02-19T14:22:48.283Z,312.47
2019-02-19T14:25:32.684Z,309.87
2019-02-19T14:28:22.309Z,286.73
2019-02-19T14:31:16.303Z,260.10
2019-02-19T14:34:03.655Z,285.80
2019-02-19T14:36:46.219Z,329.53
2019-02-19T14:39:31.920Z,294.40
2019-02-19T14:42:24.531Z,329.90
2019-02-19T14:45:12.438Z,343.40
2019-02-19T14:48:04.500Z,294.47
2019-02-19T14:50:59.095Z,350.70
2019-02-19T14:53:47.633Z,306.93
2019-02-19T14:57:18.158Z,303.47
2019-02-19T15:00:05.981Z,308.70
2019-02-19T15:02:45.592Z,325.73
2019-02-19T15:05:41.735Z,292.03
2019-02-19T15:08:47.277Z,320.40
2019-02-19T15:11:41.517Z,348.93
2019-02-19T15:14:45.859Z,337.83
2019-02-19T15:36:05.795Z,297.63
2019-02-19T15:38:49.331Z,317.53
2019-02-19T15:41:27.374Z,366.47
2019-02-19T15:44:14.922Z,321.67
2019-02-19T15:46:48.867Z,333.57
2019-02-19T15:49:47.328Z,310.63
2019-02-19T15:52:26.351Z,373.57
2019-02-19T15:55:13.028Z,320.90
2019-02-19T15:58:04.514Z,355.20
2019-02-19T16:00:47.965Z,329.80
2019-02-19T16:03:23.403Z,323.97
2019-02-19T16:05:56.411Z,324.60
2019-02-19T16:08:39.958Z,323.13
2019-02-19T16:11:13.768Z,329.77
2019-02-19T16:13:52.752Z,342.47
2019-02-19T16:16:39.414Z,344.57
2019-02-19T16:19:20.737Z,328.60
2019-02-19T16:22:07.983Z,369.33
2019-02-19T16:24:53.667Z,315.00
2019-02-19T16:27:30.389Z,352.17
2019-02-19T16:30:22.468Z,315.90
2019-02-19T16:33:00.866Z,332.73
2019-02-19T16:35:34.120Z,311.40
2019-02-19T16:38:27.046Z,313.53
2019-02-19T16:41:15.089Z,307.80
2019-02-19T16:44:00.328Z,331.23
2019-02-19T16:46:43.893Z,375.33
2019-02-19T16:49:23.029Z,362.53
2019-02-19T16:52:22.069Z,359.63
2019-02-19T16:55:11.799Z,324.83
2019-02-19T16:57:57.259Z,389.47
2019-02-19T17:00:31.319Z,319.90
2019-02-19T17:03:23.324Z,355.73
2019-02-19T17:06:05.937Z,336.33
2019-02-19T17:09:05.078Z,353.00
2019-02-19T17:11:52.954Z,375.13
2019-02-19T17:14:33.488Z,371.63
2019-02-19T17:17:20.127Z,379.73
2019-02-19T17:20:29.150Z,365.00
2019-02-19T17:23:03.908Z,337.93
2019-02-19T17:25:55.073Z,371.87
2019-02-19T17:28:40.516Z,384.33
2019-02-19T17:31:27.793Z,350.70
2019-02-19T17:34:34.896Z,371.10
2019-02-19T17:37:28.849Z,387.57
2019-02-19T17:40:02.475Z,374.87
2019-02-19T17:42:57.279Z,347.87
2019-02-19T17:45:56.128Z,370.73
2019-02-19T17:48:32.736Z,342.37
2019-02-19T17:51:35.240Z,360.03
2019-02-19T17:54:16.011Z,328.20
2019-02-19T17:57:03.356Z,366.93
2019-02-19T17:59:38.342Z,347.27
2019-02-19T18:02:10.391Z,370.23
2019-02-19T18:04:56.741Z,355.33
2019-02-19T18:07:55.721Z,372.67
2019-02-19T18:10:28.752Z,384.43
2019-02-19T18:13:13.136Z,353.37
2019-02-19T18:16:22.519Z,316.90
2019-02-19T18:18:55.944Z,341.70
2019-02-19T18:21:23.707Z,384.70
2019-02-19T18:23:51.473Z,359.30
2019-02-19T18:26:24.559Z,376.13
2019-02-19T18:28:54.660Z,355.80
2019-02-19T18:31:22.847Z,380.63
2019-02-19T18:33:51.004Z,351.77
2019-02-19T18:36:18.617Z,357.53
2019-02-19T18:38:46.404Z,348.27
2019-02-19T18:41:14.826Z,372.33
2019-02-19T18:43:42.664Z,407.00
2019-02-19T18:46:10.348Z,365.17
2019-02-19T18:48:38.253Z,368.27
2019-02-19T18:51:05.878Z,369.20
2019-02-19T18:53:33.507Z,367.23
2019-02-19T18:56:01.088Z,363.00
2019-02-19T18:58:28.790Z,350.60
2019-02-19T19:00:56.516Z,374.10
2019-02-19T19:03:24.319Z,363.37
2019-02-19T19:05:51.890Z,396.17
2019-02-19T19:08:19.742Z,371.23
2019-02-19T19:10:47.168Z,362.27
2019-02-19T19:13:15.968Z,368.00
2019-02-19T19:15:44.979Z,362.87
2019-02-19T19:18:12.961Z,374.17
2019-02-19T19:20:40.494Z,401.73
2019-02-19T19:23:08.894Z,341.17
2019-02-19T19:25:37.986Z,365.37
2019-02-19T19:28:05.675Z,351.43
2019-02-19T19:30:33.649Z,346.57
2019-02-19T19:33:07.324Z,359.07
2019-02-19T19:35:35.785Z,351.23
2019-02-19T19:38:03.519Z,378.20
2019-02-19T19:40:32.960Z,368.60
2019-02-19T19:43:00.651Z,342.03
2019-02-19T19:45:29.447Z,355.10
2019-02-19T19:47:57.597Z,384.00
2019-02-19T19:50:25.376Z,390.57
2019-02-19T19:52:53.081Z,370.13
2019-02-19T19:55:20.671Z,377.17
2019-02-19T19:57:48.322Z,415.33
2019-02-19T20:00:17.467Z,369.53
2019-02-19T20:02:45.307Z,408.00
2019-02-19T20:05:13.158Z,366.17
2019-02-19T20:07:41.361Z,386.60
2019-02-19T20:10:09.537Z,370.97
2019-02-19T20:12:37.953Z,389.87
2019-02-19T20:15:07.047Z,371.23
2019-02-19T20:17:35.597Z,374.03
2019-02-19T20:20:04.694Z,382.73
2019-02-19T20:22:40.314Z,353.53
2019-02-19T20:25:11.420Z,388.63
2019-02-19T20:27:41.412Z,382.30
2019-02-19T20:30:14.756Z,366.70
2019-02-19T20:32:42.798Z,365.30
2019-02-19T20:35:13.207Z,379.43
2019-02-19T20:37:41.461Z,389.60
2019-02-19T20:40:10.654Z,417.03
2019-02-19T20:42:39.271Z,379.27
2019-02-19T20:45:15.615Z,384.10
2019-02-19T20:47:47.943Z,380.00
2019-02-19T20:50:17.060Z,376.70
2019-02-19T20:52:46.773Z,386.77
2019-02-19T20:55:15.523Z,434.43
2019-02-19T20:57:43.578Z,362.10
2019-02-19T21:00:16.264Z,386.90
2019-02-19T21:02:46.710Z,389.13
2019-02-19T21:05:14.925Z,387.70
2019-02-19T21:07:43.068Z,369.57
2019-02-19T21:10:16.181Z,378.40
2019-02-19T21:12:44.119Z,385.03
2019-02-19T21:15:13.770Z,377.87
2019-02-19T21:17:41.986Z,371.80
2019-02-19T21:20:11.459Z,375.47
2019-02-19T21:22:40.803Z,384.13
2019-02-19T21:25:08.858Z,382.33
2019-02-19T21:27:36.900Z,253.13
2019-02-19T21:30:06.199Z,233.03
2019-02-19T21:32:35.875Z,238.33
2019-02-19T21:35:03.822Z,231.83
2019-02-19T21:37:31.970Z,363.17
2019-02-19T21:39:59.787Z,379.77
2019-02-19T21:42:27.570Z,365.60
2019-02-19T21:44:55.292Z,368.73
2019-02-19T21:47:23.174Z,385.00
2019-02-19T21:49:51.047Z,361.80
2019-02-19T21:52:18.588Z,376.37
2019-02-19T21:54:46.236Z,354.07
2019-02-19T21:57:13.896Z,404.50
2019-02-19T21:59:41.534Z,400.20
2019-02-19T22:02:16.300Z,386.23
2019-02-19T22:04:38.613Z,370.97
2019-02-19T22:07:07.937Z,388.30
2019-02-19T22:09:35.592Z,361.23
2019-02-19T22:12:03.163Z,382.13
2019-02-19T22:14:30.873Z,342.83
2019-02-19T22:16:58.490Z,380.23
2019-02-19T22:19:26.465Z,370.40
2019-02-19T22:22:19.348Z,388.77
2019-02-19T22:24:47.462Z,374.67
2019-02-19T22:27:15.543Z,381.67
2019-02-19T22:29:46.165Z,340.97
2019-02-19T22:32:16.985Z,371.90
2019-02-19T22:34:45.068Z,337.20
2019-02-19T22:37:12.673Z,364.47
2019-02-19T22:39:40.304Z,334.20
2019-02-19T22:42:08.244Z,349.03
2019-02-19T22:44:35.715Z,333.37
2019-02-19T22:47:05.184Z,380.90
2019-02-19T22:49:32.958Z,312.77
2019-02-19T22:52:00.724Z,346.73
2019-02-19T22:54:57.158Z,306.33
2019-02-19T22:57:24.901Z,313.33
2019-02-19T22:59:52.644Z,299.13
2019-02-19T23:02:26.401Z,322.40
2019-02-19T23:04:54.560Z,322.13
2019-02-19T23:07:22.670Z,332.33
2019-02-19T23:09:51.743Z,335.67
2019-02-19T23:12:19.609Z,356.27
2019-02-19T23:14:47.040Z,344.73
2019-02-19T23:17:14.547Z,336.57
2019-02-19T23:19:42.968Z,308.93
2019-02-19T23:22:10.751Z,351.40
2019-02-19T23:24:38.381Z,315.73
2019-02-19T23:27:06.030Z,347.20
2019-02-19T23:29:33.691Z,341.03
2019-02-19T23:32:03.505Z,379.67
2019-02-19T23:34:31.259Z,339.00
2019-02-19T23:37:19.188Z,365.00
2019-02-19T23:39:46.987Z,339.70
2019-02-19T23:42:14.637Z,347.03
2019-02-19T23:44:42.030Z,341.73
2019-02-19T23:47:09.552Z,393.50
2019-02-19T23:49:37.085Z,340.70
2019-02-19T23:52:04.904Z,380.67
2019-02-19T23:54:33.722Z,329.90
2019-02-19T23:57:01.223Z,383.10
2019-02-19T23:59:28.594Z,359.43
